Terminal Aerodrome Forecast
Issued by NWS

Home | Current Version | Previous Version | Text Only | Print | Product List | Glossary On
Versions: 1 2 3 4 5 6 7 8 9 10 11 12 13 14 15 16 17 18 19 20 21
000
FTAK31 PAJN 161700
TAFAJN
TAF
PAJN 161726Z 1618/1718 08006KT P6SM BCFG VCSH FEW005 SCT025 OVC040
     FM162100 23005KT P6SM BKN050 OVC080
     FM170300 33004KT P6SM BKN100
     FM171500 00000KT P6SM BCFG SCT010 BKN050 OVC100=

USA.gov is the U.S. government's official web portal to all federal, state and local government web resources and services.